MSC Beryl — 3EXV8 — position and weather

sailwx.info

Track history (hours):
 
Tides and Currents Weather Stations Pressure Air Temp Water Temp Dewpoint Dewpoint Depression Visibility Wind Speed Wind Dir Waves Ship Positions

MSC Beryl

Last reported at 2018-Jun-18 23:44 UTC. Time now 2018-Jun-21 16:25 UTC.
Position N 01°55' E 104°45'.

Length 366 m; draft 12.5 m.

Type: Ship (hazmat cat A). MMSI: 357926000.

Date/timePositionNaut miles runAvg speedWind from/ knotsBaromVisibWave heightAir tempDewpointWater temp
2018-Jun-18 23:44N 01°55' E 104°45'512.2
2018-Jun-18 23:20N 01°50' E 104°43'412.5
2018-Jun-18 22:59N 01°47' E 104°41'612.4
2018-Jun-18 22:30N 01°41' E 104°39'813.7
2018-Jun-18 21:56N 01°33' E 104°37'613.1
2018-Jun-18 21:30N 01°29' E 104°33'713.0
2018-Jun-18 20:58N 01°24' E 104°28'612.0
2018-Jun-18 20:30N 01°21' E 104°23'712.7
2018-Jun-18 19:59N 01°17' E 104°18'713.3
2018-Jun-18 19:29N 01°16' E 104°12'612.8
2018-Jun-18 19:00N 01°15' E 104°05'612.5
2018-Jun-18 18:30N 01°14' E 103°59'612.4
2018-Jun-18 18:00N 01°12' E 103°53'611.6
2018-Jun-18 17:30N 01°10' E 103°48'510.6
2018-Jun-18 17:00N 01°06' E 103°44'510.1
2018-Jun-18 16:30N 01°04' E 103°40'4 8.4
2018-Jun-18 16:00N 01°05' E 103°36'4 7.2
2018-Jun-18 15:30N 01°07' E 103°33'3 5.4
2018-Jun-18 15:00N 01°09' E 103°31'5 9.8
2018-Jun-18 14:30N 01°14' E 103°32'4 8.5
2018-Jun-18 13:59N 01°18' E 103°33'3 5.5
2018-Jun-18 13:30N 01°21' E 103°33'0 0.2
2018-Jun-18 13:00N 01°21' E 103°33'0 0.0
2018-Jun-18 12:30N 01°21' E 103°33'0 0.0
2018-Jun-18 12:00N 01°21' E 103°33'0 0.0
2018-Jun-18 11:30N 01°21' E 103°33'0 0.0
2018-Jun-18 11:00N 01°21' E 103°33'0 0.0
2018-Jun-18 10:30N 01°21' E 103°33'0 0.0
2018-Jun-18 10:00N 01°21' E 103°33'0 0.0
2018-Jun-18 09:30N 01°21' E 103°33'0 0.0
2018-Jun-18 08:58N 01°21' E 103°33'0 0.0
2018-Jun-18 08:30N 01°21' E 103°33'0 0.0
2018-Jun-18 08:00N 01°21' E 103°33'0 0.0
2018-Jun-18 07:30N 01°21' E 103°33'0 0.0
2018-Jun-18 07:00N 01°21' E 103°33'0 0.0
2018-Jun-18 06:30N 01°21' E 103°33'0 0.0
2018-Jun-18 06:00N 01°21' E 103°33'0 0.0
2018-Jun-18 05:30N 01°21' E 103°33'0 0.0
2018-Jun-18 05:00N 01°21' E 103°33'0 0.0
2018-Jun-18 04:30N 01°21' E 103°33'0 0.0
2018-Jun-18 04:00N 01°21' E 103°33'0 0.0
2018-Jun-18 03:30N 01°21' E 103°33'0 0.0
2018-Jun-18 03:01N 01°21' E 103°33'0 0.0
2018-Jun-18 02:30N 01°21' E 103°33'0 0.0
2018-Jun-18 02:00N 01°21' E 103°33'0 0.0
2018-Jun-18 01:30N 01°21' E 103°33'0 0.0
2018-Jun-18 01:00N 01°21' E 103°33'0 0.0
2018-Jun-18 00:30N 01°21' E 103°33'0 0.0
2018-Jun-18 00:00N 01°21' E 103°33'0 0.0
2018-Jun-17 23:30N 01°21' E 103°33'0 0.0
2018-Jun-17 23:00N 01°21' E 103°33'0 0.0
2018-Jun-17 22:30N 01°21' E 103°33'0 0.0
2018-Jun-17 22:00N 01°21' E 103°33'0 0.0
2018-Jun-17 21:30N 01°21' E 103°33'0 0.0
2018-Jun-17 21:00N 01°21' E 103°33'0 0.0
2018-Jun-17 20:30N 01°21' E 103°33'0 0.0
2018-Jun-17 20:00N 01°21' E 103°33'0 0.0
2018-Jun-17 19:30N 01°21' E 103°33'0 0.0
2018-Jun-17 19:00N 01°21' E 103°33'0 0.0
2018-Jun-17 18:30N 01°21' E 103°33'0 0.0
2018-Jun-17 18:00N 01°21' E 103°33'0 0.0
2018-Jun-17 17:30N 01°21' E 103°33'0 0.0
2018-Jun-17 16:58N 01°21' E 103°33'0 0.0
2018-Jun-17 16:30N 01°21' E 103°33'0 0.0
2018-Jun-17 16:00N 01°21' E 103°33'0 0.0
2018-Jun-17 15:29N 01°21' E 103°33'0 0.0
2018-Jun-17 15:00N 01°21' E 103°33'0 0.0
2018-Jun-17 14:30N 01°21' E 103°33'0 0.0
2018-Jun-17 14:00N 01°21' E 103°33'0 0.0
2018-Jun-17 13:30N 01°21' E 103°33'0 0.0
2018-Jun-17 13:00N 01°21' E 103°33'0 0.0
2018-Jun-17 12:30N 01°21' E 103°33'0 0.0
2018-Jun-17 12:00N 01°21' E 103°33'0 0.0
2018-Jun-17 11:30N 01°21' E 103°33'0 0.0
2018-Jun-17 11:00N 01°21' E 103°33'0 0.0
2018-Jun-17 10:30N 01°21' E 103°33'0 0.0
2018-Jun-17 10:00N 01°21' E 103°33'0 0.0
2018-Jun-17 09:30N 01°21' E 103°33'0 0.0
2018-Jun-17 09:00N 01°21' E 103°33'0 0.0
2018-Jun-17 08:31N 01°21' E 103°33'0 0.0
2018-Jun-17 08:00N 01°21' E 103°33'0 0.0
2018-Jun-17 07:30N 01°21' E 103°33'0 0.0
2018-Jun-17 06:59N 01°21' E 103°33'0 0.0
2018-Jun-17 06:29N 01°21' E 103°33'0 0.0
2018-Jun-17 06:00N 01°21' E 103°33'0 0.0
2018-Jun-17 05:30N 01°21' E 103°33'0 0.0
2018-Jun-17 05:00N 01°21' E 103°33'0 0.0
2018-Jun-17 04:30N 01°21' E 103°33'0 0.0
2018-Jun-17 04:00N 01°21' E 103°33'1 1.4
2018-Jun-17 03:30N 01°21' E 103°33'2 3.8
2018-Jun-17 03:00N 01°19' E 103°33'4 7.1
2018-Jun-17 02:31N 01°15' E 103°33'4 7.1
2018-Jun-17 02:00N 01°12' E 103°30'1 2.8
2018-Jun-17 01:30N 01°12' E 103°29'1 2.1
2018-Jun-17 01:00N 01°11' E 103°28'1 1.8
2018-Jun-17 00:30N 01°11' E 103°27'1 2.4
2018-Jun-17 00:00N 01°11' E 103°26'510.9
2018-Jun-16 23:30N 01°14' E 103°22'611.9
2018-Jun-16 23:00N 01°18' E 103°17'812.2
2018-Jun-16 22:23N 01°23' E 103°11'612.0
2018-Jun-16 21:53N 01°26' E 103°07'  
Track history (hours):
 
Tides and Currents Weather Stations Pressure Air Temp Water Temp Dewpoint Dewpoint Depression Visibility Wind Speed Wind Dir Waves Ship Positions

MSC Beryl

Last reported at 2018-Jun-18 23:44 UTC. Time now 2018-Jun-21 16:25 UTC.
Position N 01°55' E 104°45'.

Length 366 m; draft 12.5 m.

Type: Ship (hazmat cat A). MMSI: 357926000.

Date/timePositionNaut miles runAvg speedWind from/ knotsBaromVisibWave heightAir tempDewpointWater temp
2018-Jun-18 23:44N 01°55' E 104°45'512.2
2018-Jun-18 23:20N 01°50' E 104°43'412.5
2018-Jun-18 22:59N 01°47' E 104°41'612.4
2018-Jun-18 22:30N 01°41' E 104°39'813.7
2018-Jun-18 21:56N 01°33' E 104°37'613.1
2018-Jun-18 21:30N 01°29' E 104°33'713.0
2018-Jun-18 20:58N 01°24' E 104°28'612.0
2018-Jun-18 20:30N 01°21' E 104°23'712.7
2018-Jun-18 19:59N 01°17' E 104°18'713.3
2018-Jun-18 19:29N 01°16' E 104°12'612.8
2018-Jun-18 19:00N 01°15' E 104°05'612.5
2018-Jun-18 18:30N 01°14' E 103°59'612.4
2018-Jun-18 18:00N 01°12' E 103°53'611.6
2018-Jun-18 17:30N 01°10' E 103°48'510.6
2018-Jun-18 17:00N 01°06' E 103°44'510.1
2018-Jun-18 16:30N 01°04' E 103°40'4 8.4
2018-Jun-18 16:00N 01°05' E 103°36'4 7.2
2018-Jun-18 15:30N 01°07' E 103°33'3 5.4
2018-Jun-18 15:00N 01°09' E 103°31'5 9.8
2018-Jun-18 14:30N 01°14' E 103°32'4 8.5
2018-Jun-18 13:59N 01°18' E 103°33'3 5.5
2018-Jun-18 13:30N 01°21' E 103°33'0 0.2
2018-Jun-18 13:00N 01°21' E 103°33'0 0.0
2018-Jun-18 12:30N 01°21' E 103°33'0 0.0
2018-Jun-18 12:00N 01°21' E 103°33'0 0.0
2018-Jun-18 11:30N 01°21' E 103°33'0 0.0
2018-Jun-18 11:00N 01°21' E 103°33'0 0.0
2018-Jun-18 10:30N 01°21' E 103°33'0 0.0
2018-Jun-18 10:00N 01°21' E 103°33'0 0.0
2018-Jun-18 09:30N 01°21' E 103°33'0 0.0
2018-Jun-18 08:58N 01°21' E 103°33'0 0.0
2018-Jun-18 08:30N 01°21' E 103°33'0 0.0
2018-Jun-18 08:00N 01°21' E 103°33'0 0.0
2018-Jun-18 07:30N 01°21' E 103°33'0 0.0
2018-Jun-18 07:00N 01°21' E 103°33'0 0.0
2018-Jun-18 06:30N 01°21' E 103°33'0 0.0
2018-Jun-18 06:00N 01°21' E 103°33'0 0.0
2018-Jun-18 05:30N 01°21' E 103°33'0 0.0
2018-Jun-18 05:00N 01°21' E 103°33'0 0.0
2018-Jun-18 04:30N 01°21' E 103°33'0 0.0
2018-Jun-18 04:00N 01°21' E 103°33'0 0.0
2018-Jun-18 03:30N 01°21' E 103°33'0 0.0
2018-Jun-18 03:01N 01°21' E 103°33'0 0.0
2018-Jun-18 02:30N 01°21' E 103°33'0 0.0
2018-Jun-18 02:00N 01°21' E 103°33'0 0.0
2018-Jun-18 01:30N 01°21' E 103°33'0 0.0
2018-Jun-18 01:00N 01°21' E 103°33'0 0.0
2018-Jun-18 00:30N 01°21' E 103°33'0 0.0
2018-Jun-18 00:00N 01°21' E 103°33'0 0.0
2018-Jun-17 23:30N 01°21' E 103°33'0 0.0
2018-Jun-17 23:00N 01°21' E 103°33'0 0.0
2018-Jun-17 22:30N 01°21' E 103°33'0 0.0
2018-Jun-17 22:00N 01°21' E 103°33'0 0.0
2018-Jun-17 21:30N 01°21' E 103°33'0 0.0
2018-Jun-17 21:00N 01°21' E 103°33'0 0.0
2018-Jun-17 20:30N 01°21' E 103°33'0 0.0
2018-Jun-17 20:00N 01°21' E 103°33'0 0.0
2018-Jun-17 19:30N 01°21' E 103°33'0 0.0
2018-Jun-17 19:00N 01°21' E 103°33'0 0.0
2018-Jun-17 18:30N 01°21' E 103°33'0 0.0
2018-Jun-17 18:00N 01°21' E 103°33'0 0.0
2018-Jun-17 17:30N 01°21' E 103°33'0 0.0
2018-Jun-17 16:58N 01°21' E 103°33'0 0.0
2018-Jun-17 16:30N 01°21' E 103°33'0 0.0
2018-Jun-17 16:00N 01°21' E 103°33'0 0.0
2018-Jun-17 15:29N 01°21' E 103°33'0 0.0
2018-Jun-17 15:00N 01°21' E 103°33'0 0.0
2018-Jun-17 14:30N 01°21' E 103°33'0 0.0
2018-Jun-17 14:00N 01°21' E 103°33'0 0.0
2018-Jun-17 13:30N 01°21' E 103°33'0 0.0
2018-Jun-17 13:00N 01°21' E 103°33'0 0.0
2018-Jun-17 12:30N 01°21' E 103°33'0 0.0
2018-Jun-17 12:00N 01°21' E 103°33'0 0.0
2018-Jun-17 11:30N 01°21' E 103°33'0 0.0
2018-Jun-17 11:00N 01°21' E 103°33'0 0.0
2018-Jun-17 10:30N 01°21' E 103°33'0 0.0
2018-Jun-17 10:00N 01°21' E 103°33'0 0.0
2018-Jun-17 09:30N 01°21' E 103°33'0 0.0
2018-Jun-17 09:00N 01°21' E 103°33'0 0.0
2018-Jun-17 08:31N 01°21' E 103°33'0 0.0
2018-Jun-17 08:00N 01°21' E 103°33'0 0.0
2018-Jun-17 07:30N 01°21' E 103°33'0 0.0
2018-Jun-17 06:59N 01°21' E 103°33'0 0.0
2018-Jun-17 06:29N 01°21' E 103°33'0 0.0
2018-Jun-17 06:00N 01°21' E 103°33'0 0.0
2018-Jun-17 05:30N 01°21' E 103°33'0 0.0
2018-Jun-17 05:00N 01°21' E 103°33'0 0.0
2018-Jun-17 04:30N 01°21' E 103°33'0 0.0
2018-Jun-17 04:00N 01°21' E 103°33'1 1.4
2018-Jun-17 03:30N 01°21' E 103°33'2 3.8
2018-Jun-17 03:00N 01°19' E 103°33'4 7.1
2018-Jun-17 02:31N 01°15' E 103°33'4 7.1
2018-Jun-17 02:00N 01°12' E 103°30'1 2.8
2018-Jun-17 01:30N 01°12' E 103°29'1 2.1
2018-Jun-17 01:00N 01°11' E 103°28'1 1.8
2018-Jun-17 00:30N 01°11' E 103°27'1 2.4
2018-Jun-17 00:00N 01°11' E 103°26'510.9
2018-Jun-16 23:30N 01°14' E 103°22'611.9
2018-Jun-16 23:00N 01°18' E 103°17'812.2
2018-Jun-16 22:23N 01°23' E 103°11'612.0
2018-Jun-16 21:53N 01°26' E 103°07'  

Dump ship's entire track history